TRA8Z EHAM-LFMN
Flight info
| Callsign | TRA8Z |
|---|---|
| Flight time | 1h 28m |
| Altitude | 35000 |
| Route | WOODY N872 NIK M624 RITAX DCT LIMGO N852 SUTAL DCT GTQ DCT POGOL DCT LASAT DCT MOROK DCT GILIR DCT GEVEA DCT KOGAS DCT MEDAM/N0465F290 DCT VEVAR |
| Aircraft | B738/M-SDE2E3FGHIRWXY/LB1 |
Departure
| Time | 2026-04-17 12:30 |
|---|---|
| Airport | Amsterdam Airport Schiphol (EHAM) |
Arrival
| Time | 2026-04-17 13:58 |
|---|---|
| Airport | Nice-Côte d'Azur Airport (LFMN) |
| Time | Latitude | Longitude | Altitude | Speed | Heading |
|---|---|---|---|---|---|
| 2026-04-17 11:57 | 52.30999 | 4.77314 | -2 ft | 0 kts | 182° |
| 2026-04-17 12:23 | 52.31004 | 4.77315 | -2 ft | 2 kts | 182° |
| 2026-04-17 12:23 | 52.31023 | 4.77316 | -2 ft | 3 kts | 182° |
| 2026-04-17 12:24 | 52.31043 | 4.77316 | -2 ft | 3 kts | 169° |
| 2026-04-17 12:24 | 52.31061 | 4.77306 | -2 ft | 3 kts | 142° |
| 2026-04-17 12:24 | 52.31073 | 4.77285 | -2 ft | 3 kts | 103° |
| 2026-04-17 12:24 | 52.31074 | 4.77267 | -2 ft | 2 kts | 93° |
| 2026-04-17 12:25 | 52.31075 | 4.77239 | -2 ft | 2 kts | 93° |
| 2026-04-17 12:25 | 52.31076 | 4.77234 | -2 ft | 1 kts | 93° |
| 2026-04-17 12:27 | 52.31075 | 4.77250 | -2 ft | 3 kts | 95° |
| 2026-04-17 12:27 | 52.31072 | 4.77304 | -2 ft | 7 kts | 92° |
| 2026-04-17 12:27 | 52.31069 | 4.77401 | -2 ft | 10 kts | 93° |
| 2026-04-17 12:27 | 52.31031 | 4.77481 | -2 ft | 10 kts | 166° |
| 2026-04-17 12:28 | 52.30965 | 4.77480 | -2 ft | 9 kts | 183° |
| 2026-04-17 12:28 | 52.30900 | 4.77474 | -2 ft | 10 kts | 183° |
| 2026-04-17 12:28 | 52.30816 | 4.77466 | -2 ft | 15 kts | 183° |
| 2026-04-17 12:28 | 52.30692 | 4.77459 | -2 ft | 20 kts | 175° |
| 2026-04-17 12:29 | 52.30556 | 4.77553 | -2 ft | 22 kts | 153° |
| 2026-04-17 12:29 | 52.30437 | 4.77646 | -2 ft | 13 kts | 174° |
| 2026-04-17 12:29 | 52.30372 | 4.77530 | -3 ft | 24 kts | 238° |
| 2026-04-17 12:29 | 52.30165 | 4.76991 | -4 ft | 87 kts | 237° |
| 2026-04-17 12:30 | 52.29741 | 4.75888 | -3 ft | 140 kts | 237° |
| 2026-04-17 12:30 | 52.29169 | 4.74385 | 240 ft | 161 kts | 235° |
| 2026-04-17 12:30 | 52.28583 | 4.72865 | 915 ft | 158 kts | 236° |
| 2026-04-17 12:30 | 52.27992 | 4.71373 | 1616 ft | 159 kts | 235° |
| 2026-04-17 12:31 | 52.27378 | 4.69808 | 2136 ft | 171 kts | 235° |
| 2026-04-17 12:31 | 52.26490 | 4.68371 | 2395 ft | 192 kts | 204° |
| 2026-04-17 12:31 | 52.25136 | 4.68159 | 2750 ft | 208 kts | 166° |
| 2026-04-17 12:31 | 52.23816 | 4.69199 | 3255 ft | 217 kts | 155° |
| 2026-04-17 12:32 | 52.22469 | 4.70362 | 3902 ft | 219 kts | 155° |
| 2026-04-17 12:32 | 52.21113 | 4.71505 | 4667 ft | 219 kts | 156° |
| 2026-04-17 12:32 | 52.19739 | 4.72642 | 5350 ft | 222 kts | 156° |
| 2026-04-17 12:32 | 52.18350 | 4.73779 | 5983 ft | 226 kts | 156° |
| 2026-04-17 12:33 | 52.16927 | 4.74877 | 6544 ft | 233 kts | 163° |
| 2026-04-17 12:33 | 52.15288 | 4.75609 | 6776 ft | 254 kts | 169° |
| 2026-04-17 12:33 | 52.13523 | 4.76237 | 7262 ft | 263 kts | 170° |
| 2026-04-17 12:33 | 52.11715 | 4.76881 | 7901 ft | 267 kts | 169° |
| 2026-04-17 12:34 | 52.09887 | 4.77550 | 8583 ft | 271 kts | 170° |
| 2026-04-17 12:34 | 52.08048 | 4.78238 | 9231 ft | 275 kts | 170° |
| 2026-04-17 12:34 | 52.06174 | 4.78953 | 9906 ft | 278 kts | 170° |
| 2026-04-17 12:34 | 52.04268 | 4.79686 | 10482 ft | 285 kts | 170° |
| 2026-04-17 12:35 | 52.02268 | 4.80453 | 10647 ft | 306 kts | 170° |
| 2026-04-17 12:35 | 52.00121 | 4.81225 | 10799 ft | 324 kts | 175° |
| 2026-04-17 12:35 | 51.97841 | 4.80951 | 10931 ft | 337 kts | 199° |
| 2026-04-17 12:35 | 51.95647 | 4.79418 | 11128 ft | 351 kts | 208° |
| 2026-04-17 12:37 | 51.79706 | 4.66809 | 15094 ft | 375 kts | 207° |
| 2026-04-17 12:37 | 51.77343 | 4.64970 | 15676 ft | 378 kts | 207° |
| 2026-04-17 12:38 | 51.75762 | 4.63741 | 16055 ft | 380 kts | 207° |
| 2026-04-17 12:38 | 51.73370 | 4.61883 | 16624 ft | 383 kts | 207° |
| 2026-04-17 12:38 | 51.70947 | 4.60002 | 17156 ft | 387 kts | 207° |
| 2026-04-17 12:38 | 51.68509 | 4.58113 | 17691 ft | 390 kts | 207° |
| 2026-04-17 12:39 | 51.66045 | 4.56205 | 18231 ft | 393 kts | 207° |
| 2026-04-17 12:39 | 51.63597 | 4.54311 | 18735 ft | 396 kts | 207° |
| 2026-04-17 12:39 | 51.61105 | 4.52383 | 19202 ft | 399 kts | 208° |
| 2026-04-17 12:39 | 51.58591 | 4.50441 | 19692 ft | 401 kts | 208° |
| 2026-04-17 12:40 | 51.56061 | 4.48487 | 20149 ft | 403 kts | 208° |
| 2026-04-17 12:40 | 51.53520 | 4.46528 | 20606 ft | 406 kts | 208° |
| 2026-04-17 12:40 | 51.51001 | 4.44588 | 21044 ft | 408 kts | 208° |
| 2026-04-17 12:40 | 51.48420 | 4.42602 | 21460 ft | 411 kts | 208° |
| 2026-04-17 12:41 | 51.45832 | 4.40612 | 21865 ft | 414 kts | 208° |
| 2026-04-17 12:41 | 51.43220 | 4.38609 | 22276 ft | 416 kts | 208° |
| 2026-04-17 12:41 | 51.40595 | 4.36597 | 22693 ft | 419 kts | 208° |
| 2026-04-17 12:41 | 51.37944 | 4.34597 | 23099 ft | 421 kts | 207° |
| 2026-04-17 12:42 | 51.35283 | 4.32614 | 23495 ft | 424 kts | 207° |
| 2026-04-17 12:42 | 51.32633 | 4.30643 | 23853 ft | 426 kts | 207° |
| 2026-04-17 12:42 | 51.29929 | 4.28620 | 24166 ft | 429 kts | 208° |
| 2026-04-17 12:42 | 51.27226 | 4.26559 | 24476 ft | 431 kts | 208° |
| 2026-04-17 12:43 | 51.24514 | 4.24487 | 24760 ft | 433 kts | 208° |
| 2026-04-17 12:43 | 51.21743 | 4.22448 | 25030 ft | 438 kts | 203° |
| 2026-04-17 12:43 | 51.18858 | 4.21495 | 25270 ft | 449 kts | 185° |
| 2026-04-17 12:43 | 51.15728 | 4.22002 | 25609 ft | 457 kts | 170° |
| 2026-04-17 12:44 | 51.12714 | 4.23754 | 25901 ft | 467 kts | 155° |
| 2026-04-17 12:44 | 51.10077 | 4.26744 | 26145 ft | 475 kts | 143° |
| 2026-04-17 12:44 | 51.07558 | 4.30199 | 26407 ft | 478 kts | 142° |
| 2026-04-17 12:44 | 51.05046 | 4.33715 | 26650 ft | 481 kts | 142° |
| 2026-04-17 12:45 | 51.02513 | 4.37233 | 26894 ft | 484 kts | 142° |
| 2026-04-17 12:45 | 50.99956 | 4.40728 | 27147 ft | 485 kts | 143° |
| 2026-04-17 12:45 | 50.97377 | 4.44205 | 27399 ft | 487 kts | 143° |
| 2026-04-17 12:45 | 50.94779 | 4.47682 | 27639 ft | 489 kts | 143° |
| 2026-04-17 12:46 | 50.92165 | 4.51173 | 27913 ft | 490 kts | 143° |
| 2026-04-17 12:46 | 50.89577 | 4.54691 | 28271 ft | 491 kts | 140° |
| 2026-04-17 12:46 | 50.87151 | 4.58393 | 28647 ft | 491 kts | 138° |
| 2026-04-17 12:46 | 50.84746 | 4.62240 | 29000 ft | 491 kts | 137° |
| 2026-04-17 12:47 | 50.82346 | 4.66111 | 29316 ft | 491 kts | 137° |
| 2026-04-17 12:47 | 50.79945 | 4.69950 | 29655 ft | 491 kts | 137° |
| 2026-04-17 12:47 | 50.77529 | 4.73762 | 29989 ft | 490 kts | 137° |
| 2026-04-17 12:47 | 50.75110 | 4.77549 | 30435 ft | 487 kts | 138° |
| 2026-04-17 12:48 | 50.72733 | 4.81252 | 30757 ft | 486 kts | 138° |
| 2026-04-17 12:48 | 50.70324 | 4.84995 | 30991 ft | 487 kts | 138° |
| 2026-04-17 12:48 | 50.67902 | 4.88755 | 31221 ft | 488 kts | 138° |
| 2026-04-17 12:48 | 50.65479 | 4.92515 | 31519 ft | 487 kts | 137° |
| 2026-04-17 12:49 | 50.63067 | 4.96260 | 31829 ft | 486 kts | 137° |
| 2026-04-17 12:49 | 50.60659 | 4.99996 | 32106 ft | 485 kts | 137° |
| 2026-04-17 12:49 | 50.58279 | 5.03686 | 32348 ft | 486 kts | 137° |
| 2026-04-17 12:49 | 50.55871 | 5.07416 | 32610 ft | 485 kts | 137° |
| 2026-04-17 12:50 | 50.53464 | 5.11138 | 32876 ft | 485 kts | 137° |
| 2026-04-17 12:50 | 50.51055 | 5.14858 | 33126 ft | 485 kts | 137° |
| 2026-04-17 12:50 | 50.48646 | 5.18572 | 33335 ft | 486 kts | 137° |
| 2026-04-17 12:50 | 50.46229 | 5.22292 | 33584 ft | 486 kts | 137° |
| 2026-04-17 12:51 | 50.43815 | 5.26001 | 33866 ft | 485 kts | 137° |
| 2026-04-17 12:51 | 50.41406 | 5.29697 | 34128 ft | 484 kts | 137° |
| 2026-04-17 12:51 | 50.38996 | 5.33389 | 34338 ft | 485 kts | 137° |
| 2026-04-17 12:51 | 50.36584 | 5.37079 | 34544 ft | 484 kts | 137° |
| 2026-04-17 12:52 | 50.34172 | 5.40763 | 34777 ft | 483 kts | 137° |
| 2026-04-17 12:52 | 50.31761 | 5.44441 | 34994 ft | 483 kts | 137° |
| 2026-04-17 12:52 | 50.29354 | 5.48107 | 35182 ft | 483 kts | 137° |
| 2026-04-17 12:53 | 50.24542 | 5.55420 | 35217 ft | 482 kts | 136° |
| 2026-04-17 12:53 | 50.19746 | 5.62685 | 35222 ft | 484 kts | 137° |
| 2026-04-17 12:54 | 50.14898 | 5.70011 | 35223 ft | 486 kts | 137° |
| 2026-04-17 12:54 | 50.10023 | 5.77357 | 35222 ft | 487 kts | 137° |
| 2026-04-17 12:55 | 50.04896 | 5.84169 | 35222 ft | 486 kts | 146° |
| 2026-04-17 12:55 | 49.99318 | 5.90088 | 35212 ft | 485 kts | 147° |
| 2026-04-17 12:56 | 49.93724 | 5.95990 | 35212 ft | 484 kts | 147° |
| 2026-04-17 12:56 | 49.88214 | 6.01904 | 35208 ft | 483 kts | 146° |
| 2026-04-17 12:57 | 49.82699 | 6.07852 | 35214 ft | 482 kts | 146° |
| 2026-04-17 12:57 | 49.77189 | 6.13777 | 35216 ft | 481 kts | 146° |
| 2026-04-17 12:58 | 49.71687 | 6.19672 | 35209 ft | 480 kts | 146° |
| 2026-04-17 12:58 | 49.66235 | 6.25496 | 35214 ft | 479 kts | 146° |
| 2026-04-17 12:59 | 49.60447 | 6.30535 | 35221 ft | 475 kts | 159° |
| 2026-04-17 12:59 | 49.54303 | 6.34335 | 35207 ft | 475 kts | 160° |
| 2026-04-17 13:00 | 49.48227 | 6.38197 | 35212 ft | 475 kts | 159° |
| 2026-04-17 13:00 | 49.42146 | 6.42226 | 35211 ft | 476 kts | 158° |
| 2026-04-17 13:01 | 49.36087 | 6.46372 | 35209 ft | 476 kts | 158° |
| 2026-04-17 13:01 | 49.30029 | 6.50500 | 35220 ft | 476 kts | 158° |
| 2026-04-17 13:02 | 49.23959 | 6.54601 | 35218 ft | 476 kts | 158° |
| 2026-04-17 13:02 | 49.17920 | 6.58665 | 35219 ft | 477 kts | 158° |
| 2026-04-17 13:03 | 49.11845 | 6.62743 | 35205 ft | 477 kts | 158° |
| 2026-04-17 13:03 | 49.05764 | 6.66816 | 35208 ft | 477 kts | 158° |
| 2026-04-17 13:04 | 48.99632 | 6.70503 | 35189 ft | 475 kts | 168° |
| 2026-04-17 13:04 | 48.93109 | 6.71585 | 35212 ft | 470 kts | 184° |
| 2026-04-17 13:05 | 48.86560 | 6.71214 | 35200 ft | 470 kts | 184° |
| 2026-04-17 13:05 | 48.80003 | 6.70872 | 35206 ft | 471 kts | 184° |
| 2026-04-17 13:06 | 48.73489 | 6.70598 | 35207 ft | 472 kts | 183° |
| 2026-04-17 13:06 | 48.66900 | 6.70345 | 35207 ft | 472 kts | 183° |
| 2026-04-17 13:07 | 48.60356 | 6.70093 | 35207 ft | 472 kts | 183° |
| 2026-04-17 13:07 | 48.53773 | 6.69838 | 35200 ft | 473 kts | 183° |
| 2026-04-17 13:08 | 48.47180 | 6.69582 | 35197 ft | 473 kts | 183° |
| 2026-04-17 13:08 | 48.40605 | 6.69327 | 35202 ft | 473 kts | 183° |
| 2026-04-17 13:09 | 48.34069 | 6.69079 | 35205 ft | 472 kts | 183° |
| 2026-04-17 13:09 | 48.27491 | 6.68833 | 35200 ft | 472 kts | 183° |
| 2026-04-17 13:10 | 48.20915 | 6.68588 | 35198 ft | 471 kts | 184° |
| 2026-04-17 13:10 | 48.14356 | 6.68343 | 35200 ft | 470 kts | 183° |
| 2026-04-17 13:11 | 48.07858 | 6.68101 | 35196 ft | 469 kts | 183° |
| 2026-04-17 13:11 | 48.01335 | 6.67859 | 35193 ft | 468 kts | 184° |
| 2026-04-17 13:12 | 47.94822 | 6.67618 | 35196 ft | 467 kts | 184° |
| 2026-04-17 13:12 | 47.85074 | 6.67258 | 35191 ft | 466 kts | 184° |
| 2026-04-17 13:13 | 47.78600 | 6.67020 | 35192 ft | 465 kts | 184° |
| 2026-04-17 13:13 | 47.72166 | 6.66784 | 35182 ft | 464 kts | 184° |
| 2026-04-17 13:14 | 47.65707 | 6.66547 | 35189 ft | 463 kts | 184° |
| 2026-04-17 13:14 | 47.59263 | 6.66312 | 35180 ft | 462 kts | 184° |
| 2026-04-17 13:15 | 47.52859 | 6.66078 | 35182 ft | 462 kts | 184° |
| 2026-04-17 13:15 | 47.46423 | 6.65844 | 35185 ft | 462 kts | 184° |
| 2026-04-17 13:16 | 47.40131 | 6.64507 | 35194 ft | 454 kts | 204° |
| 2026-04-17 13:16 | 47.37292 | 6.62489 | 35187 ft | 450 kts | 215° |
| 2026-04-17 13:16 | 47.34830 | 6.59741 | 35197 ft | 446 kts | 223° |
| 2026-04-17 13:17 | 47.30145 | 6.53707 | 35200 ft | 447 kts | 224° |
| 2026-04-17 13:17 | 47.25421 | 6.47699 | 35188 ft | 449 kts | 223° |
| 2026-04-17 13:18 | 47.20679 | 6.41764 | 35189 ft | 450 kts | 223° |
| 2026-04-17 13:18 | 47.15896 | 6.35812 | 35188 ft | 450 kts | 223° |
| 2026-04-17 13:19 | 47.11110 | 6.29864 | 35186 ft | 451 kts | 223° |
| 2026-04-17 13:19 | 47.05867 | 6.24841 | 35192 ft | 457 kts | 204° |
| 2026-04-17 13:20 | 46.99632 | 6.22791 | 35195 ft | 462 kts | 188° |
| 2026-04-17 13:20 | 46.93233 | 6.22039 | 35188 ft | 463 kts | 187° |
| 2026-04-17 13:21 | 46.86805 | 6.21279 | 35185 ft | 463 kts | 187° |
| 2026-04-17 13:21 | 46.80381 | 6.20451 | 35187 ft | 463 kts | 188° |
| 2026-04-17 13:22 | 46.74002 | 6.19602 | 35184 ft | 462 kts | 188° |
| 2026-04-17 13:22 | 46.67583 | 6.18746 | 35188 ft | 463 kts | 188° |
| 2026-04-17 13:23 | 46.61197 | 6.17900 | 35184 ft | 463 kts | 188° |
| 2026-04-17 13:23 | 46.54771 | 6.17052 | 35186 ft | 463 kts | 188° |
| 2026-04-17 13:24 | 46.48339 | 6.16205 | 35182 ft | 463 kts | 188° |
| 2026-04-17 13:24 | 46.41956 | 6.15366 | 35182 ft | 462 kts | 188° |
| 2026-04-17 13:25 | 46.35542 | 6.14525 | 35187 ft | 462 kts | 188° |
| 2026-04-17 13:25 | 46.30217 | 6.13829 | 35186 ft | 462 kts | 187° |
| 2026-04-17 13:26 | 46.23762 | 6.14392 | 35190 ft | 468 kts | 169° |
| 2026-04-17 13:26 | 46.17599 | 6.17562 | 35188 ft | 472 kts | 159° |
| 2026-04-17 13:27 | 46.11569 | 6.21216 | 35177 ft | 472 kts | 159° |
| 2026-04-17 13:27 | 46.05489 | 6.24818 | 35177 ft | 473 kts | 160° |
| 2026-04-17 13:28 | 45.99379 | 6.28369 | 35181 ft | 473 kts | 160° |
| 2026-04-17 13:28 | 45.93258 | 6.31908 | 35181 ft | 474 kts | 160° |
| 2026-04-17 13:29 | 45.87170 | 6.35427 | 35189 ft | 474 kts | 160° |
| 2026-04-17 13:29 | 45.81048 | 6.39058 | 35160 ft | 476 kts | 155° |
| 2026-04-17 13:30 | 45.75505 | 6.44257 | 35178 ft | 479 kts | 146° |
| 2026-04-17 13:30 | 45.70117 | 6.49892 | 35161 ft | 479 kts | 146° |
| 2026-04-17 13:31 | 45.64702 | 6.55474 | 35177 ft | 478 kts | 146° |
| 2026-04-17 13:31 | 45.59300 | 6.60958 | 35170 ft | 479 kts | 146° |
| 2026-04-17 13:32 | 45.53856 | 6.66452 | 35192 ft | 478 kts | 146° |
| 2026-04-17 13:32 | 45.48406 | 6.71943 | 35180 ft | 479 kts | 146° |
| 2026-04-17 13:33 | 45.42983 | 6.77398 | 35183 ft | 480 kts | 146° |
| 2026-04-17 13:33 | 45.37514 | 6.82886 | 35182 ft | 481 kts | 146° |
| 2026-04-17 13:34 | 45.32027 | 6.88380 | 35179 ft | 482 kts | 146° |
| 2026-04-17 13:34 | 45.26273 | 6.93080 | 35187 ft | 478 kts | 161° |
| 2026-04-17 13:35 | 45.19847 | 6.95224 | 35176 ft | 473 kts | 176° |
| 2026-04-17 13:35 | 45.13305 | 6.96151 | 35173 ft | 473 kts | 177° |
| 2026-04-17 13:36 | 45.06753 | 6.97105 | 35168 ft | 473 kts | 176° |
| 2026-04-17 13:36 | 45.00201 | 6.98123 | 35169 ft | 474 kts | 176° |
| 2026-04-17 13:37 | 44.93640 | 6.99160 | 35145 ft | 474 kts | 176° |
| 2026-04-17 13:37 | 44.87111 | 7.00187 | 35153 ft | 474 kts | 176° |
| 2026-04-17 13:38 | 44.80527 | 7.01218 | 34868 ft | 479 kts | 176° |
| 2026-04-17 13:38 | 44.77196 | 7.01848 | 34226 ft | 481 kts | 173° |
| 2026-04-17 13:38 | 44.73882 | 7.02613 | 33520 ft | 481 kts | 172° |
| 2026-04-17 13:39 | 44.70634 | 7.03419 | 32817 ft | 480 kts | 172° |
| 2026-04-17 13:39 | 44.67342 | 7.04247 | 32107 ft | 480 kts | 172° |
| 2026-04-17 13:39 | 44.64034 | 7.05067 | 31374 ft | 481 kts | 172° |
| 2026-04-17 13:39 | 44.60725 | 7.05872 | 30654 ft | 481 kts | 172° |
| 2026-04-17 13:40 | 44.57418 | 7.06663 | 29852 ft | 482 kts | 172° |
| 2026-04-17 13:40 | 44.54145 | 7.07439 | 28958 ft | 483 kts | 172° |
| 2026-04-17 13:40 | 44.50834 | 7.08219 | 28105 ft | 482 kts | 172° |
| 2026-04-17 13:40 | 44.47528 | 7.08996 | 27218 ft | 481 kts | 172° |
| 2026-04-17 13:41 | 44.44260 | 7.09764 | 26582 ft | 477 kts | 172° |
| 2026-04-17 13:41 | 44.40973 | 7.10536 | 25952 ft | 472 kts | 172° |
| 2026-04-17 13:41 | 44.37744 | 7.11294 | 25337 ft | 467 kts | 172° |
| 2026-04-17 13:41 | 44.34553 | 7.12045 | 24734 ft | 463 kts | 172° |
| 2026-04-17 13:42 | 44.31390 | 7.12787 | 24125 ft | 459 kts | 172° |
| 2026-04-17 13:42 | 44.28245 | 7.13524 | 23461 ft | 456 kts | 172° |
| 2026-04-17 13:42 | 44.25123 | 7.14254 | 22791 ft | 452 kts | 172° |
| 2026-04-17 13:42 | 44.22047 | 7.15023 | 22152 ft | 448 kts | 168° |
| 2026-04-17 13:43 | 44.19084 | 7.16313 | 21588 ft | 445 kts | 158° |
| 2026-04-17 13:43 | 44.16278 | 7.17981 | 21007 ft | 441 kts | 157° |
| 2026-04-17 13:43 | 44.13474 | 7.19688 | 20419 ft | 438 kts | 157° |
| 2026-04-17 13:43 | 44.10676 | 7.21384 | 19840 ft | 437 kts | 157° |
| 2026-04-17 13:44 | 44.07879 | 7.23056 | 19286 ft | 438 kts | 157° |
| 2026-04-17 13:44 | 44.05080 | 7.24712 | 18721 ft | 436 kts | 157° |
| 2026-04-17 13:44 | 44.02328 | 7.26326 | 18102 ft | 432 kts | 158° |
| 2026-04-17 13:44 | 43.99567 | 7.27939 | 17477 ft | 427 kts | 158° |
| 2026-04-17 13:45 | 43.96834 | 7.29532 | 16892 ft | 422 kts | 157° |
| 2026-04-17 13:45 | 43.94140 | 7.31102 | 16340 ft | 418 kts | 157° |
| 2026-04-17 13:45 | 43.91468 | 7.32659 | 15783 ft | 414 kts | 157° |
| 2026-04-17 13:45 | 43.88820 | 7.34200 | 15260 ft | 410 kts | 157° |
| 2026-04-17 13:46 | 43.86200 | 7.35723 | 14718 ft | 407 kts | 157° |
| 2026-04-17 13:46 | 43.83619 | 7.37323 | 14189 ft | 404 kts | 151° |
| 2026-04-17 13:46 | 43.81279 | 7.39452 | 13734 ft | 399 kts | 141° |
| 2026-04-17 13:46 | 43.79180 | 7.41854 | 13305 ft | 394 kts | 139° |
| 2026-04-17 13:47 | 43.77076 | 7.44274 | 12850 ft | 390 kts | 140° |
| 2026-04-17 13:47 | 43.74998 | 7.46635 | 12446 ft | 383 kts | 140° |
| 2026-04-17 13:47 | 43.72943 | 7.48944 | 12037 ft | 377 kts | 140° |
| 2026-04-17 13:47 | 43.70914 | 7.51210 | 11653 ft | 371 kts | 140° |
| 2026-04-17 13:48 | 43.68922 | 7.53445 | 11264 ft | 366 kts | 138° |
| 2026-04-17 13:48 | 43.67264 | 7.56056 | 10870 ft | 359 kts | 120° |
| 2026-04-17 13:48 | 43.66119 | 7.59035 | 10543 ft | 353 kts | 116° |
| 2026-04-17 13:48 | 43.64997 | 7.62030 | 10158 ft | 349 kts | 116° |
| 2026-04-17 13:49 | 43.63885 | 7.64965 | 9985 ft | 339 kts | 116° |
| 2026-04-17 13:49 | 43.62794 | 7.67803 | 9794 ft | 327 kts | 116° |
| 2026-04-17 13:49 | 43.61526 | 7.70424 | 9127 ft | 327 kts | 134° |
| 2026-04-17 13:49 | 43.59670 | 7.72140 | 8707 ft | 319 kts | 159° |
| 2026-04-17 13:50 | 43.57535 | 7.72682 | 8361 ft | 308 kts | 182° |
| 2026-04-17 13:50 | 43.55492 | 7.72140 | 8036 ft | 297 kts | 201° |
| 2026-04-17 13:50 | 43.53724 | 7.70764 | 7712 ft | 287 kts | 220° |
| 2026-04-17 13:50 | 43.52425 | 7.68754 | 7226 ft | 282 kts | 247° |
| 2026-04-17 13:51 | 43.52064 | 7.66183 | 6896 ft | 272 kts | 274° |
| 2026-04-17 13:51 | 43.52446 | 7.63643 | 6564 ft | 270 kts | 293° |
| 2026-04-17 13:51 | 43.53257 | 7.61337 | 6225 ft | 265 kts | 299° |
| 2026-04-17 13:51 | 43.54131 | 7.59162 | 5890 ft | 259 kts | 300° |
| 2026-04-17 13:52 | 43.54993 | 7.57012 | 5572 ft | 253 kts | 298° |
| 2026-04-17 13:52 | 43.55826 | 7.54890 | 5198 ft | 250 kts | 298° |
| 2026-04-17 13:52 | 43.56636 | 7.52798 | 4896 ft | 244 kts | 297° |
| 2026-04-17 13:52 | 43.57426 | 7.50746 | 4580 ft | 240 kts | 297° |
| 2026-04-17 13:53 | 43.58205 | 7.48744 | 4309 ft | 233 kts | 300° |
| 2026-04-17 13:53 | 43.59103 | 7.46923 | 4055 ft | 226 kts | 304° |
| 2026-04-17 13:53 | 43.60014 | 7.45190 | 3774 ft | 221 kts | 304° |
| 2026-04-17 13:53 | 43.60902 | 7.43486 | 3497 ft | 216 kts | 303° |
| 2026-04-17 13:54 | 43.62603 | 7.40179 | 2979 ft | 205 kts | 303° |
| 2026-04-17 13:54 | 43.63391 | 7.38640 | 2752 ft | 192 kts | 303° |
| 2026-04-17 13:55 | 43.64817 | 7.35848 | 2321 ft | 167 kts | 303° |
| 2026-04-17 13:55 | 43.65479 | 7.34552 | 2133 ft | 165 kts | 303° |
| 2026-04-17 13:55 | 43.66858 | 7.31908 | 1717 ft | 170 kts | 304° |
| 2026-04-17 13:56 | 43.68211 | 7.29313 | 1196 ft | 167 kts | 307° |
| 2026-04-17 13:56 | 43.68820 | 7.27949 | 942 ft | 166 kts | 288° |
| 2026-04-17 13:56 | 43.68924 | 7.26400 | 691 ft | 161 kts | 258° |
| 2026-04-17 13:57 | 43.68491 | 7.25012 | 546 ft | 157 kts | 233° |
| 2026-04-17 13:57 | 43.67768 | 7.23889 | 328 ft | 156 kts | 219° |
| 2026-04-17 13:57 | 43.66229 | 7.21850 | 21 ft | 131 kts | 225° |
| 2026-04-17 13:58 | 43.65737 | 7.21172 | 23 ft | 71 kts | 225° |
| 2026-04-17 13:58 | 43.65803 | 7.20867 | 21 ft | 22 kts | 350° |
| 2026-04-17 13:58 | 43.65947 | 7.20881 | 22 ft | 22 kts | 38° |
| 2026-04-17 13:59 | 43.66153 | 7.21163 | 21 ft | 20 kts | 45° |
| 2026-04-17 13:59 | 43.66252 | 7.21300 | 21 ft | 21 kts | 45° |
| 2026-04-17 13:59 | 43.66350 | 7.21443 | 21 ft | 20 kts | 52° |
| 2026-04-17 14:00 | 43.66442 | 7.21578 | 22 ft | 9 kts | 46° |
| 2026-04-17 14:00 | 43.66474 | 7.21580 | 21 ft | 5 kts | 326° |
| 2026-04-17 14:00 | 43.66502 | 7.21541 | 21 ft | 4 kts | 316° |
| 2026-04-17 14:00 | 43.66506 | 7.21536 | 21 ft | 0 kts | 316° |